Time;durP1;ratioP1;P1;durP2;ratioP2;P2;SDS_P1;SDS_P2;PMS_P1;PMS_P2;Temp;Humidity;BMP_temperature;BMP_pressure;BME280_temperature;BME280_humidity;BME280_pressure;Samples;Min_cycle;Max_cycle;Signal;HPM_P1;HPM_P2
2020/12/23 00:01:24;;;;;;;;;;;;;;;22.71;37.44;100160.22;4984368;28;19989;-61
2020/12/23 00:03:52;;;;;;;;;;;;;;;22.82;36.98;100152.59;4981450;28;19933;-61
2020/12/23 00:06:19;;;;;;;;;;;;;;;22.90;36.68;100154.69;4988465;28;19936;-60
2020/12/23 00:08:45;;;;;;;;;;;;;;;22.97;36.51;100149.59;5004703;28;19925;-60
2020/12/23 00:11:14;;;;;;;;;;;;;;;23.00;36.45;100149.00;4996454;28;19926;-61
2020/12/23 00:13:40;;;;;;;;;;;;;;;23.05;36.14;100151.72;4977969;28;19999;-61
2020/12/23 00:16:06;;;;;;;;;;;;;;;23.08;36.66;100156.66;4970286;28;19945;-61
2020/12/23 00:18:32;;;;;;;;;;;;;;;23.12;36.47;100162.47;4975168;28;20405;-61
2020/12/23 00:20:59;;;;;;;;;;;;;;;23.11;36.33;100160.81;4993448;28;20025;-61
2020/12/23 00:23:25;;;;;;;;;;;;;;;23.12;36.28;100162.47;4999186;28;20021;-62
2020/12/23 00:25:51;;;;;;;;;;;;;;;23.10;36.30;100150.81;5003404;28;19932;-61
2020/12/23 00:28:17;;;;;;;;;;;;;;;23.08;36.17;100153.88;4975040;28;19969;-61
2020/12/23 00:30:43;;;;;;;;;;;;;;;23.06;36.39;100159.75;4973343;28;20014;-61
2020/12/23 00:33:23;;;;;;;;;;;;;;;23.06;36.13;100156.16;4995454;28;20012;-62
2020/12/23 00:35:50;;;;;;;;;;;;;;;23.03;36.48;100157.56;4977676;28;19934;-61
2020/12/23 00:38:16;;;;;;;;;;;;;;;23.04;36.41;100152.84;4985229;28;20567;-62
2020/12/23 00:40:42;;;;;;;;;;;;;;;23.03;36.46;100148.41;4962609;28;20335;-61
2020/12/23 00:43:08;;;;;;;;;;;;;;;23.04;36.04;100138.94;4976935;28;19934;-61
2020/12/23 00:45:36;;;;;;;;;;;;;;;23.04;36.14;100148.09;4957572;28;19969;-63
2020/12/23 00:48:03;;;;;;;;;;;;;;;23.08;36.07;100148.34;4956566;28;20363;-61
2020/12/23 00:50:30;;;;;;;;;;;;;;;23.10;36.10;100136.91;4975109;28;20506;-62
2020/12/23 00:52:56;;;;;;;;;;;;;;;23.11;36.04;100136.63;4976476;28;20351;-61
2020/12/23 00:55:22;;;;;;;;;;;;;;;23.15;35.94;100126.53;4982266;28;19933;-61
2020/12/23 00:57:48;;;;;;;;;;;;;;;23.18;35.96;100128.72;4984708;28;19926;-61
2020/12/23 01:00:15;;;;;;;;;;;;;;;23.21;35.80;100139.25;4994575;28;19933;-62
2020/12/23 01:02:41;;;;;;;;;;;;;;;23.23;35.71;100138.91;4993961;28;19925;-61
2020/12/23 01:05:07;;;;;;;;;;;;;;;23.22;35.95;100143.66;4994023;28;19926;-61
2020/12/23 01:07:34;;;;;;;;;;;;;;;23.22;35.88;100138.09;4993926;28;19926;-61
2020/12/23 01:10:00;;;;;;;;;;;;;;;23.24;35.85;100140.56;4978955;28;20013;-61
2020/12/23 01:12:26;;;;;;;;;;;;;;;23.23;35.83;100142.53;4994103;28;19930;-61
2020/12/23 01:14:52;;;;;;;;;;;;;;;23.21;35.82;100146.75;4993381;28;19976;-61
2020/12/23 01:17:19;;;;;;;;;;;;;;;23.20;35.85;100161.78;4993575;28;19944;-61
2020/12/23 01:19:45;;;;;;;;;;;;;;;23.19;35.99;100162.91;4993526;28;19926;-63
2020/12/23 01:22:11;;;;;;;;;;;;;;;23.17;36.34;100162.38;4957659;28;19933;-62
2020/12/23 01:24:37;;;;;;;;;;;;;;;23.16;36.28;100158.78;4993850;28;20325;-62
2020/12/23 01:27:03;;;;;;;;;;;;;;;23.14;36.35;100161.03;4969282;28;20443;-61
2020/12/23 01:29:30;;;;;;;;;;;;;;;23.13;36.26;100153.81;4973569;28;20025;-61
2020/12/23 01:31:56;;;;;;;;;;;;;;;23.14;36.16;100157.44;4956832;28;19934;-61
2020/12/23 01:34:22;;;;;;;;;;;;;;;23.09;36.54;100158.31;4973343;28;20020;-61
2020/12/23 01:36:49;;;;;;;;;;;;;;;23.07;36.52;100166.13;4993335;28;20380;-61
2020/12/23 01:39:15;;;;;;;;;;;;;;;23.07;36.21;100155.00;4992953;28;20380;-62
2020/12/23 01:41:41;;;;;;;;;;;;;;;23.08;36.48;100156.66;4998039;28;19948;-60
2020/12/23 01:44:07;;;;;;;;;;;;;;;23.11;36.13;100161.63;4993714;28;19926;-62
2020/12/23 01:46:34;;;;;;;;;;;;;;;23.17;36.42;100154.88;4992976;28;19950;-61
2020/12/23 01:49:01;;;;;;;;;;;;;;;23.22;36.26;100149.22;4975893;28;19926;-62
2020/12/23 01:51:27;;;;;;;;;;;;;;;23.28;35.97;100144.41;4993040;28;19926;-61
2020/12/23 01:53:54;;;;;;;;;;;;;;;23.33;36.16;100153.50;4975932;28;19932;-61
2020/12/23 01:56:20;;;;;;;;;;;;;;;23.36;35.92;100150.13;4990521;28;19932;-61
2020/12/23 01:58:47;;;;;;;;;;;;;;;23.39;35.65;100132.00;4942174;28;19930;-62
2020/12/23 02:01:20;;;;;;;;;;;;;;;23.37;35.84;100126.72;4973222;28;19926;-62
2020/12/23 02:03:47;;;;;;;;;;;;;;;23.37;35.77;100115.59;4981564;28;19930;-61
2020/12/23 02:06:14;;;;;;;;;;;;;;;23.37;35.87;100110.03;4974334;28;19933;-61
2020/12/23 02:08:40;;;;;;;;;;;;;;;23.37;35.88;100112.00;4975374;28;19925;-62
2020/12/23 02:11:08;;;;;;;;;;;;;;;23.33;36.02;100131.25;4992609;28;19929;-61
2020/12/23 02:13:43;;;;;;;;;;;;;;;23.32;35.89;100128.75;4972758;28;19930;-62
2020/12/23 02:16:10;;;;;;;;;;;;;;;23.31;35.99;100127.13;4989822;28;20455;-61
2020/12/23 02:18:36;;;;;;;;;;;;;;;23.28;35.83;100124.94;4964104;28;19951;-61
2020/12/23 02:21:20;;;;;;;;;;;;;;;23.26;36.02;100107.72;4992495;28;19933;-61
2020/12/23 02:23:47;;;;;;;;;;;;;;;23.22;36.11;100101.94;4976429;28;21299;-61
2020/12/23 02:26:13;;;;;;;;;;;;;;;23.18;36.02;100086.19;4980632;28;20384;-62
2020/12/23 02:28:40;;;;;;;;;;;;;;;23.16;36.10;100072.59;4972974;28;20543;-61
2020/12/23 02:31:07;;;;;;;;;;;;;;;23.15;35.92;100078.44;4992438;28;20403;-62
2020/12/23 02:33:33;;;;;;;;;;;;;;;23.15;35.91;100081.22;4990118;28;19925;-61
2020/12/23 02:35:59;;;;;;;;;;;;;;;23.18;35.97;100070.34;4983028;28;20029;-62
2020/12/23 02:38:25;;;;;;;;;;;;;;;23.22;36.00;100076.09;4974412;28;19930;-61
2020/12/23 02:40:52;;;;;;;;;;;;;;;23.26;36.08;100066.00;4974974;28;20029;-61
2020/12/23 02:43:18;;;;;;;;;;;;;;;23.29;35.97;100073.75;4991893;28;19926;-61
2020/12/23 02:45:44;;;;;;;;;;;;;;;23.30;36.08;100081.78;4993639;28;19926;-61
2020/12/23 02:48:11;;;;;;;;;;;;;;;23.34;36.00;100073.66;4958650;28;19933;-63
2020/12/23 02:50:37;;;;;;;;;;;;;;;23.33;36.22;100067.28;4969365;28;19926;-62
2020/12/23 02:53:03;;;;;;;;;;;;;;;23.33;36.12;100060.88;4964143;28;19980;-62
2020/12/23 02:55:30;;;;;;;;;;;;;;;23.33;35.74;100063.66;4997272;28;20016;-61
2020/12/23 02:57:56;;;;;;;;;;;;;;;23.31;35.94;100065.94;4972208;28;19937;-61
2020/12/23 03:00:22;;;;;;;;;;;;;;;23.30;36.16;100058.72;4955063;28;19926;-61
2020/12/23 03:02:48;;;;;;;;;;;;;;;23.30;36.25;100055.94;4955505;28;19933;-61
2020/12/23 03:05:14;;;;;;;;;;;;;;;23.27;36.24;100050.97;4973558;28;19926;-61
2020/12/23 03:07:41;;;;;;;;;;;;;;;23.25;36.16;100056.00;4974700;28;19969;-61
2020/12/23 03:10:07;;;;;;;;;;;;;;;23.22;36.33;100054.66;4974221;28;19926;-62
2020/12/23 03:12:33;;;;;;;;;;;;;;;23.17;36.54;100056.72;4991472;28;19925;-61
2020/12/23 03:14:59;;;;;;;;;;;;;;;23.13;36.43;100036.22;4992068;28;19926;-61
2020/12/23 03:17:25;;;;;;;;;;;;;;;23.11;36.69;100033.75;4977593;28;20006;-61
2020/12/23 03:19:52;;;;;;;;;;;;;;;23.10;36.84;100042.38;4991063;28;19932;-61
2020/12/23 03:22:18;;;;;;;;;;;;;;;23.12;36.78;100040.97;4991751;28;19925;-61
2020/12/23 03:24:44;;;;;;;;;;;;;;;23.12;36.69;100049.28;4997277;28;19965;-61
2020/12/23 03:27:10;;;;;;;;;;;;;;;23.11;36.90;100042.09;5007705;28;20319;-61
2020/12/23 03:29:37;;;;;;;;;;;;;;;23.13;36.48;100039.81;4955501;28;19953;-62
2020/12/23 03:32:03;;;;;;;;;;;;;;;23.14;36.52;100047.03;4955738;28;19926;-62
2020/12/23 03:34:29;;;;;;;;;;;;;;;23.15;36.69;100040.34;4994787;28;20024;-61
2020/12/23 03:36:55;;;;;;;;;;;;;;;23.19;36.59;100044.19;4992662;28;19932;-62
2020/12/23 03:39:21;;;;;;;;;;;;;;;23.22;36.49;100059.41;4991883;28;19987;-61
2020/12/23 03:41:48;;;;;;;;;;;;;;;23.22;36.42;100054.66;4968104;28;19926;-62
2020/12/23 03:44:14;;;;;;;;;;;;;;;23.27;36.56;100059.31;4984255;28;20024;-61
2020/12/23 03:46:40;;;;;;;;;;;;;;;23.29;36.36;100046.75;4987205;28;19943;-61
2020/12/23 03:49:07;;;;;;;;;;;;;;;23.30;36.41;100053.97;4989819;28;19930;-61
2020/12/23 03:51:33;;;;;;;;;;;;;;;23.31;36.13;100046.47;4977497;28;20483;-60
2020/12/23 03:53:59;;;;;;;;;;;;;;;23.30;36.24;100053.97;4990208;28;19932;-60
2020/12/23 03:56:25;;;;;;;;;;;;;;;23.31;36.10;100050.06;4988795;28;20360;-61
2020/12/23 03:58:51;;;;;;;;;;;;;;;23.31;35.99;100052.84;4977450;28;19932;-61
2020/12/23 04:01:18;;;;;;;;;;;;;;;23.32;36.10;100056.44;4971868;28;19936;-62
2020/12/23 04:03:44;;;;;;;;;;;;;;;23.29;36.44;100051.50;4979306;28;19926;-60
2020/12/23 04:06:10;;;;;;;;;;;;;;;23.30;36.13;100051.19;4985141;28;20012;-61
2020/12/23 04:08:38;;;;;;;;;;;;;;;23.27;36.23;100050.97;4988002;28;19933;-61
2020/12/23 04:11:04;;;;;;;;;;;;;;;23.23;36.23;100055.50;4961411;28;19926;-61
2020/12/23 04:13:30;;;;;;;;;;;;;;;23.22;36.25;100059.41;4982068;28;19932;-61
2020/12/23 04:15:56;;;;;;;;;;;;;;;23.22;36.33;100056.63;4988994;28;19936;-61
2020/12/23 04:18:22;;;;;;;;;;;;;;;23.20;36.40;100065.28;4968858;28;19925;-61
2020/12/23 04:20:49;;;;;;;;;;;;;;;23.18;36.89;100064.78;4987840;28;20456;-61
2020/12/23 04:23:15;;;;;;;;;;;;;;;23.24;36.86;100069.09;4962688;28;20012;-62
2020/12/23 04:25:41;;;;;;;;;;;;;;;23.30;36.57;100067.88;4979059;28;20692;-61
2020/12/23 04:28:07;;;;;;;;;;;;;;;23.34;36.42;100066.16;4982869;28;19933;-61
2020/12/23 04:30:34;;;;;;;;;;;;;;;23.34;36.11;100068.94;4973099;28;20016;-61
2020/12/23 04:33:00;;;;;;;;;;;;;;;23.37;36.44;100070.28;4989437;28;19926;-61
2020/12/23 04:35:27;;;;;;;;;;;;;;;23.38;36.12;100078.31;4989165;28;20041;-62
2020/12/23 04:37:53;;;;;;;;;;;;;;;23.40;35.97;100070.50;4960060;28;20320;-62
2020/12/23 04:40:20;;;;;;;;;;;;;;;23.40;36.17;100070.50;4991456;28;20285;-61
2020/12/23 04:42:46;;;;;;;;;;;;;;;23.40;35.97;100069.66;4975517;28;19926;-60
2020/12/23 04:45:12;;;;;;;;;;;;;;;23.42;35.89;100077.72;4992035;28;19926;-61
2020/12/23 04:47:38;;;;;;;;;;;;;;;23.40;35.92;100073.28;4975276;28;19968;-61
2020/12/23 04:50:05;;;;;;;;;;;;;;;23.42;35.65;100075.75;4975720;28;20281;-62
2020/12/23 04:52:32;;;;;;;;;;;;;;;23.40;35.96;100075.22;4993774;28;19930;-61
2020/12/23 04:54:59;;;;;;;;;;;;;;;23.40;35.72;100064.94;4976252;28;20034;-61
2020/12/23 04:57:29;;;;;;;;;;;;;;;23.42;35.67;100066.59;5047218;22;20012;-65
2020/12/23 04:59:55;;;;;;;;;;;;;;;23.42;35.62;100080.50;5025473;28;19933;-64
2020/12/23 05:02:26;;;;;;;;;;;;;;;23.39;35.42;100074.41;5031248;28;19931;-64
2020/12/23 05:04:52;;;;;;;;;;;;;;;23.36;35.74;100075.00;5031035;28;19925;-65
2020/12/23 05:07:20;;;;;;;;;;;;;;;23.35;35.70;100081.72;5032262;28;19959;-64
2020/12/23 05:09:49;;;;;;;;;;;;;;;23.34;35.47;100080.06;5014467;28;19932;-65
2020/12/23 05:12:19;;;;;;;;;;;;;;;23.34;35.67;100088.41;5028292;28;19932;-64
2020/12/23 05:14:45;;;;;;;;;;;;;;;23.33;35.43;100083.13;5030983;28;20018;-65
2020/12/23 05:17:11;;;;;;;;;;;;;;;23.33;35.73;100075.63;5029992;28;19940;-66
2020/12/23 05:19:38;;;;;;;;;;;;;;;23.32;35.61;100068.41;5031956;28;20395;-66
2020/12/23 05:22:05;;;;;;;;;;;;;;;23.31;35.67;100072.31;5028660;28;20394;-63
2020/12/23 05:24:32;;;;;;;;;;;;;;;23.31;35.51;100061.19;5030562;28;19929;-64
2020/12/23 05:26:58;;;;;;;;;;;;;;;23.29;35.58;100057.88;5027491;28;20415;-64
2020/12/23 05:29:24;;;;;;;;;;;;;;;23.30;35.73;100059.53;5030526;28;19929;-65
2020/12/23 05:31:51;;;;;;;;;;;;;;;23.32;35.32;100057.28;5028632;28;19925;-65
2020/12/23 05:34:18;;;;;;;;;;;;;;;23.33;35.41;100050.59;5030465;28;19929;-64
2020/12/23 05:36:44;;;;;;;;;;;;;;;23.34;35.16;100054.19;5027258;28;19925;-64
2020/12/23 05:39:10;;;;;;;;;;;;;;;23.34;35.34;100051.41;5029013;28;20399;-64
2020/12/23 05:41:37;;;;;;;;;;;;;;;23.35;35.48;100062.25;5028876;28;19929;-64
2020/12/23 05:44:13;;;;;;;;;;;;;;;23.39;35.22;100063.28;5030490;28;19925;-64
2020/12/23 05:46:39;;;;;;;;;;;;;;;23.36;35.14;100061.09;5029946;28;19925;-64
2020/12/23 05:49:07;;;;;;;;;;;;;;;23.34;35.33;100066.16;5028518;28;20321;-64
2020/12/23 05:51:37;;;;;;;;;;;;;;;23.34;35.11;100060.59;5014002;28;19925;-64
2020/12/23 05:54:04;;;;;;;;;;;;;;;23.33;34.94;100056.16;5030036;28;19940;-64
2020/12/23 05:56:34;;;;;;;;;;;;;;;23.33;35.20;100060.88;5030008;28;20310;-64
2020/12/23 05:59:00;;;;;;;;;;;;;;;23.33;35.16;100064.50;5026923;28;19926;-64
2020/12/23 06:01:26;;;;;;;;;;;;;;;23.32;35.30;100057.28;5031009;28;20338;-64
2020/12/23 06:03:55;;;;;;;;;;;;;;;23.31;35.26;100061.19;5028388;28;19956;-64
2020/12/23 06:06:28;;;;;;;;;;;;;;;23.32;35.10;100062.84;5011563;28;19948;-64
2020/12/23 06:08:55;;;;;;;;;;;;;;;23.32;35.12;100067.59;5026018;28;20008;-64
2020/12/23 06:11:31;;;;;;;;;;;;;;;23.30;35.29;100059.53;5029763;28;19932;-64
2020/12/23 06:14:16;;;;;;;;;;;;;;;23.33;35.15;100053.38;5026917;28;20306;-64
2020/12/23 06:16:43;;;;;;;;;;;;;;;23.33;34.82;100056.16;5026896;28;19925;-64
2020/12/23 06:19:13;;;;;;;;;;;;;;;23.33;34.83;100064.50;5029783;28;19932;-65
2020/12/23 06:21:39;;;;;;;;;;;;;;;23.35;34.89;100064.19;5017420;28;19932;-64
2020/12/23 06:24:18;;;;;;;;;;;;;;;23.33;34.79;100058.94;5011055;28;19932;-65
2020/12/23 06:26:48;;;;;;;;;;;;;;;23.35;35.18;100050.28;5015908;28;19933;-65
2020/12/23 06:29:15;;;;;;;;;;;;;;;23.32;35.14;100051.72;5022909;28;19925;-64
2020/12/23 06:31:45;;;;;;;;;;;;;;;23.29;35.22;100052.31;5030111;28;19929;-64
2020/12/23 06:34:12;;;;;;;;;;;;;;;23.25;34.86;100050.44;5031152;28;19925;-64
2020/12/23 06:36:39;;;;;;;;;;;;;;;23.23;35.10;100058.28;5030093;28;20280;-64
2020/12/23 06:39:20;;;;;;;;;;;;;;;23.23;35.08;100052.72;5031063;28;19925;-63
2020/12/23 06:41:47;;;;;;;;;;;;;;;23.24;34.91;100062.69;5031263;28;19932;-65
2020/12/23 06:44:14;;;;;;;;;;;;;;;23.24;35.06;100057.97;5029926;28;19931;-65
2020/12/23 06:46:58;;;;;;;;;;;;;;;23.25;35.08;100064.34;5029725;28;19925;-65
2020/12/23 06:49:43;;;;;;;;;;;;;;;23.25;35.06;100062.41;5029765;28;19933;-65
2020/12/23 06:52:22;;;;;;;;;;;;;;;23.22;35.06;100065.78;5030918;28;19925;-64
2020/12/23 06:54:48;;;;;;;;;;;;;;;23.22;35.26;100073.31;5030813;28;19933;-64
2020/12/23 06:57:33;;;;;;;;;;;;;;;23.23;35.05;100069.41;5030803;28;19961;-65
2020/12/23 07:00:03;;;;;;;;;;;;;;;23.20;35.04;100076.41;5030620;28;19925;-64
2020/12/23 07:02:33;;;;;;;;;;;;;;;23.20;35.06;100064.47;5030884;28;19925;-64
2020/12/23 07:05:00;;;;;;;;;;;;;;;23.17;35.09;100068.69;5029319;28;19931;-64
2020/12/23 07:07:41;;;;;;;;;;;;;;;23.15;35.11;100068.16;5030620;28;19933;-64
2020/12/23 07:10:07;;;;;;;;;;;;;;;23.16;35.23;100072.59;5029308;28;19929;-64
2020/12/23 07:12:34;;;;;;;;;;;;;;;23.16;35.13;100068.97;5030398;28;19948;-64
2020/12/23 07:15:07;;;;;;;;;;;;;;;23.14;34.97;100069.28;5029421;28;19972;-64
2020/12/23 07:17:43;;;;;;;;;;;;;;;23.13;35.21;100075.97;5029399;28;20374;-64
2020/12/23 07:20:09;;;;;;;;;;;;;;;23.14;34.98;100076.78;5029385;28;19931;-65
2020/12/23 07:22:35;;;;;;;;;;;;;;;23.18;35.00;100078.69;5029311;28;19960;-65
2020/12/23 07:25:02;;;;;;;;;;;;;;;23.19;35.12;100085.06;5030365;28;19925;-65
2020/12/23 07:27:28;;;;;;;;;;;;;;;23.21;35.02;100091.97;5029305;28;19925;-66
2020/12/23 07:29:55;;;;;;;;;;;;;;;23.23;34.86;100084.13;5029567;28;20334;-64
2020/12/23 07:32:23;;;;;;;;;;;;;;;23.25;35.00;100087.44;5029133;28;19932;-64
2020/12/23 07:34:49;;;;;;;;;;;;;;;23.24;34.70;100091.34;5029192;28;20391;-64
2020/12/23 07:37:15;;;;;;;;;;;;;;;23.26;34.97;100091.03;5030119;28;19925;-64
2020/12/23 07:39:42;;;;;;;;;;;;;;;23.27;34.82;100098.25;5030365;28;20353;-64
2020/12/23 07:42:08;;;;;;;;;;;;;;;23.27;34.82;100098.25;5032943;28;20449;-64
2020/12/23 07:44:36;;;;;;;;;;;;;;;23.27;34.95;100089.91;5033171;28;19960;-64
2020/12/23 07:47:03;;;;;;;;;;;;;;;23.27;34.74;100087.13;5034112;28;19999;-65
2020/12/23 07:49:29;;;;;;;;;;;;;;;23.26;34.91;100079.91;5016635;28;20334;-64
2020/12/23 07:51:56;;;;;;;;;;;;;;;23.29;35.00;100087.66;5033836;28;19933;-64
2020/12/23 07:54:22;;;;;;;;;;;;;;;23.27;34.84;100081.56;5033823;28;19932;-64
2020/12/23 07:56:48;;;;;;;;;;;;;;;23.26;34.85;100075.19;5032909;28;20016;-65
2020/12/23 07:59:23;;;;;;;;;;;;;;;23.28;34.75;100081.25;5030311;28;19932;-64
2020/12/23 08:01:50;;;;;;;;;;;;;;;23.31;34.73;100083.44;5033985;28;19964;-63
2020/12/23 08:04:16;;;;;;;;;;;;;;;23.34;34.65;100085.63;5032577;28;20020;-64
2020/12/23 08:06:42;;;;;;;;;;;;;;;23.36;34.70;100086.13;5032364;28;19929;-63
2020/12/23 08:09:11;;;;;;;;;;;;;;;23.37;34.55;100089.75;5036326;28;19925;-64
2020/12/23 08:11:38;;;;;;;;;;;;;;;23.39;34.51;100096.66;5037266;28;19929;-65
2020/12/23 08:14:04;;;;;;;;;;;;;;;23.39;34.42;100091.09;5021571;28;20538;-65
2020/12/23 08:16:30;;;;;;;;;;;;;;;23.40;34.67;100089.13;5031751;28;19925;-64
2020/12/23 08:18:56;;;;;;;;;;;;;;;23.39;34.50;100079.97;5030683;28;19925;-64
2020/12/23 08:21:23;;;;;;;;;;;;;;;23.39;34.70;100085.53;5023277;28;19925;-64
2020/12/23 08:23:52;;;;;;;;;;;;;;;23.37;34.52;100087.78;5024260;28;19995;-64
2020/12/23 08:26:18;;;;;;;;;;;;;;;23.37;34.57;100087.78;5032294;28;19929;-64
2020/12/23 08:28:44;;;;;;;;;;;;;;;23.36;34.41;100080.56;5030119;28;20385;-64
2020/12/23 08:31:15;;;;;;;;;;;;;;;23.36;34.77;100077.78;5024759;28;19975;-64
2020/12/23 08:33:41;;;;;;;;;;;;;;;23.36;34.42;100079.75;5022903;28;19925;-66
2020/12/23 08:36:07;;;;;;;;;;;;;;;23.36;34.55;100085.31;5028741;28;20303;-64
2020/12/23 08:38:38;;;;;;;;;;;;;;;23.36;34.61;100080.56;5031745;28;19929;-65
2020/12/23 08:41:09;;;;;;;;;;;;;;;23.34;34.60;100087.56;5033448;28;19925;-65
2020/12/23 08:43:36;;;;;;;;;;;;;;;23.35;34.49;100080.88;5026930;28;20327;-64
2020/12/23 08:46:02;;;;;;;;;;;;;;;23.36;34.73;100076.97;5024012;28;19925;-65
2020/12/23 08:48:29;;;;;;;;;;;;;;;23.33;34.63;100075.63;5022451;28;19926;-64
2020/12/23 08:50:56;;;;;;;;;;;;;;;23.31;34.81;100069.53;5026987;28;19932;-64
2020/12/23 08:53:32;;;;;;;;;;;;;;;23.31;34.79;100066.75;5022817;28;19933;-65
2020/12/23 08:55:59;;;;;;;;;;;;;;;23.31;34.82;100072.31;5032283;28;19968;-64
2020/12/23 08:58:25;;;;;;;;;;;;;;;23.31;34.79;100069.53;5032062;28;19925;-64
2020/12/23 09:01:01;;;;;;;;;;;;;;;23.31;34.69;100069.53;5019653;28;19925;-64
2020/12/23 09:03:27;;;;;;;;;;;;;;;23.33;34.65;100072.84;5018182;28;19936;-65
2020/12/23 09:05:57;;;;;;;;;;;;;;;23.36;34.88;100074.19;5008605;28;19979;-65
2020/12/23 09:08:25;;;;;;;;;;;;;;;23.40;34.69;100067.72;5012368;28;19931;-65
2020/12/23 09:10:54;;;;;;;;;;;;;;;23.40;34.78;100064.94;5025176;28;19925;-64
2020/12/23 09:13:30;;;;;;;;;;;;;;;23.40;34.72;100070.50;5030970;28;20020;-64
2020/12/23 09:15:57;;;;;;;;;;;;;;;23.41;34.89;100065.75;5031281;28;19932;-63
2020/12/23 09:18:23;;;;;;;;;;;;;;;23.42;34.76;100063.81;5018056;28;19980;-64
2020/12/23 09:20:59;;;;;;;;;;;;;;;23.42;34.62;100056.28;5031214;28;19925;-64
2020/12/23 09:23:25;;;;;;;;;;;;;;;23.45;34.54;100054.84;5017125;28;20281;-64
2020/12/23 09:25:52;;;;;;;;;;;;;;;23.46;34.66;100056.50;5030949;28;19975;-64
2020/12/23 09:28:18;;;;;;;;;;;;;;;23.46;34.35;100053.72;5030914;28;19930;-64
2020/12/23 09:30:45;;;;;;;;;;;;;;;23.47;34.59;100047.84;5032287;28;19925;-64
2020/12/23 09:33:21;;;;;;;;;;;;;;;23.48;34.58;100055.06;5028032;28;19925;-65
2020/12/23 09:35:48;;;;;;;;;;;;;;;23.47;34.63;100052.59;5030853;28;19940;-64
2020/12/23 09:38:18;;;;;;;;;;;;;;;23.47;34.66;100060.94;5031628;28;19932;-64
2020/12/23 09:40:47;;;;;;;;;;;;;;;23.47;34.65;100050.63;5030526;28;20395;-64
2020/12/23 09:43:14;;;;;;;;;;;;;;;23.48;34.62;100041.16;5030504;28;19951;-64
2020/12/23 09:45:41;;;;;;;;;;;;;;;23.49;34.85;100050.34;5030845;28;19960;-65
2020/12/23 09:48:11;;;;;;;;;;;;;;;23.52;34.39;100049.72;5031778;28;20050;-64
2020/12/23 09:50:37;;;;;;;;;;;;;;;23.56;34.30;100042.44;5031880;28;20015;-64
2020/12/23 09:53:03;;;;;;;;;;;;;;;23.59;34.24;100039.03;5031877;28;19987;-64
2020/12/23 09:55:30;;;;;;;;;;;;;;;23.61;34.14;100042.34;5030008;28;19929;-64
2020/12/23 09:57:56;;;;;;;;;;;;;;;23.65;34.21;100037.81;5031454;28;19925;-64
2020/12/23 10:00:24;;;;;;;;;;;;;;;23.66;34.21;100036.69;5031399;28;19932;-66
2020/12/23 10:02:50;;;;;;;;;;;;;;;23.66;34.26;100029.16;5031452;28;19925;-64
2020/12/23 10:05:16;;;;;;;;;;;;;;;23.68;33.87;100023.28;5030061;28;19928;-63
2020/12/23 10:07:42;;;;;;;;;;;;;;;23.69;34.21;100019.38;5031512;28;19963;-63
2020/12/23 10:10:08;;;;;;;;;;;;;;;23.67;34.11;100022.47;5031536;28;19925;-64
2020/12/23 10:12:36;;;;;;;;;;;;;;;23.67;34.12;100024.41;5031546;28;19933;-64
2020/12/23 10:15:03;;;;;;;;;;;;;;;23.69;34.07;100016.59;5031126;28;19925;-64
2020/12/23 10:17:30;;;;;;;;;;;;;;;23.72;34.17;100027.94;5030075;28;19940;-65
2020/12/23 10:19:56;;;;;;;;;;;;;;;23.73;34.10;100023.19;5031125;28;19953;-64
2020/12/23 10:22:22;;;;;;;;;;;;;;;23.72;34.03;100015.97;5031153;28;19936;-64
2020/12/23 10:24:48;;;;;;;;;;;;;;;23.73;34.01;100018.44;5029592;28;19925;-64
2020/12/23 10:27:15;;;;;;;;;;;;;;;23.73;33.89;100012.06;5017787;28;20284;-65
2020/12/23 10:29:41;;;;;;;;;;;;;;;23.71;34.02;100003.19;5030697;28;20027;-64
2020/12/23 10:32:07;;;;;;;;;;;;;;;23.71;34.12;99992.06;5029993;28;19925;-64
2020/12/23 10:34:33;;;;;;;;;;;;;;;23.71;33.93;99992.06;5030907;28;20028;-65
2020/12/23 10:37:00;;;;;;;;;;;;;;;23.70;34.11;99984.84;5029625;28;19979;-64
2020/12/23 10:39:26;;;;;;;;;;;;;;;23.72;33.82;99988.13;5030897;28;19964;-64
2020/12/23 10:41:53;;;;;;;;;;;;;;;23.72;34.12;99988.13;5030901;28;20460;-64
2020/12/23 10:44:20;;;;;;;;;;;;;;;23.71;33.96;99980.91;5029761;28;19932;-64
2020/12/23 10:46:46;;;;;;;;;;;;;;;23.69;33.87;99972.06;5030622;28;20020;-64
2020/12/23 10:49:15;;;;;;;;;;;;;;;23.67;34.33;99974.31;5029609;28;20405;-64
2020/12/23 10:51:41;;;;;;;;;;;;;;;23.64;34.28;99974.94;5030774;28;20380;-64
2020/12/23 10:54:08;;;;;;;;;;;;;;;23.66;34.55;99964.31;5026661;28;19929;-64
2020/12/23 10:56:34;;;;;;;;;;;;;;;23.67;34.24;99965.97;5036522;22;20036;-61
2020/12/23 10:59:00;;;;;;;;;;;;;;;23.69;34.20;99966.50;4999383;28;20099;-62
2020/12/23 11:01:27;;;;;;;;;;;;;;;23.71;34.21;99962.28;5005421;28;19957;-61
2020/12/23 11:03:53;;;;;;;;;;;;;;;23.72;34.13;99949.19;5010502;28;19933;-61
2020/12/23 11:06:19;;;;;;;;;;;;;;;23.75;34.27;99948.56;5011253;28;20379;-61
2020/12/23 11:08:48;;;;;;;;;;;;;;;23.77;34.00;99942.69;5010665;28;19932;-61
2020/12/23 11:11:14;;;;;;;;;;;;;;;23.82;34.01;99943.41;5010156;28;20356;-62
2020/12/23 11:13:41;;;;;;;;;;;;;;;23.81;33.99;99940.94;4993534;28;19934;-62
2020/12/23 11:16:14;;;;;;;;;;;;;;;23.84;34.04;99929.19;4977560;28;19932;-63
2020/12/23 11:18:40;;;;;;;;;;;;;;;23.84;33.80;99929.19;5007321;28;19971;-61
2020/12/23 11:21:07;;;;;;;;;;;;;;;23.83;34.06;99931.16;5015083;28;19925;-61
2020/12/23 11:23:33;;;;;;;;;;;;;;;23.83;34.00;99920.00;5013776;28;19931;-62
2020/12/23 11:25:59;;;;;;;;;;;;;;;23.81;33.85;99913.94;5014921;28;19926;-61
2020/12/23 11:28:28;;;;;;;;;;;;;;;23.80;33.80;99915.06;5014879;28;20383;-61
2020/12/23 11:30:54;;;;;;;;;;;;;;;23.77;34.00;99912.91;5014942;28;20031;-62
2020/12/23 11:33:20;;;;;;;;;;;;;;;23.75;34.25;99915.16;5014053;28;19932;-60
2020/12/23 11:35:46;;;;;;;;;;;;;;;23.75;33.89;99909.59;5013821;28;19926;-62
2020/12/23 11:38:13;;;;;;;;;;;;;;;23.74;34.14;99902.38;5013519;28;20459;-62
2020/12/23 11:40:39;;;;;;;;;;;;;;;23.78;34.03;99897.84;5014875;28;19937;-62
2020/12/23 11:43:05;;;;;;;;;;;;;;;23.76;34.37;99891.78;5014688;28;19925;-62
2020/12/23 11:45:31;;;;;;;;;;;;;;;23.73;34.05;99895.16;5014556;28;19932;-62
2020/12/23 11:47:57;;;;;;;;;;;;;;;23.73;34.11;99889.59;5013501;28;19944;-60
2020/12/23 11:50:23;;;;;;;;;;;;;;;23.74;34.25;99896.81;5010065;28;20034;-61
2020/12/23 11:52:50;;;;;;;;;;;;;;;23.76;34.04;99882.59;5005393;28;19933;-61
2020/12/23 11:55:18;;;;;;;;;;;;;;;23.76;34.13;99883.41;5014596;28;19933;-61
2020/12/23 11:57:45;;;;;;;;;;;;;;;23.77;34.13;99873.09;5014422;28;19933;-61
2020/12/23 12:00:11;;;;;;;;;;;;;;;23.77;33.99;99865.59;5014324;28;19934;-61
2020/12/23 12:02:40;;;;;;;;;;;;;;;23.78;34.08;99870.03;5013904;28;20107;-61
2020/12/23 12:05:08;;;;;;;;;;;;;;;23.79;33.94;99865.28;5009667;28;19932;-61
2020/12/23 12:07:34;;;;;;;;;;;;;;;23.81;33.95;99865.78;5014176;28;19933;-61
2020/12/23 12:10:01;;;;;;;;;;;;;;;23.80;34.07;99862.19;5014215;28;19925;-62
2020/12/23 12:12:27;;;;;;;;;;;;;;;23.81;34.08;99863.81;5014621;28;19930;-61
2020/12/23 12:14:54;;;;;;;;;;;;;;;23.81;33.99;99858.25;4996361;28;19960;-62
2020/12/23 12:17:20;;;;;;;;;;;;;;;23.82;34.00;99856.31;5013954;28;20399;-62
2020/12/23 12:19:46;;;;;;;;;;;;;;;23.82;34.15;99857.13;5005955;28;19965;-62
2020/12/23 12:22:12;;;;;;;;;;;;;;;23.82;33.75;99851.56;5003321;28;19926;-63
2020/12/23 12:24:38;;;;;;;;;;;;;;;23.83;33.99;99846.81;5013935;28;20029;-63
2020/12/23 12:27:05;;;;;;;;;;;;;;;23.84;34.04;99846.50;5014196;28;20026;-62
2020/12/23 12:29:32;;;;;;;;;;;;;;;23.83;33.90;99842.06;5014186;28;19979;-62
2020/12/23 12:31:58;;;;;;;;;;;;;;;23.83;33.95;99838.47;5030906;28;19984;-61
2020/12/23 12:34:24;;;;;;;;;;;;;;;23.84;33.98;99840.94;5033828;28;19936;-61
2020/12/23 12:36:50;;;;;;;;;;;;;;;23.83;34.08;99836.50;5012276;28;20017;-61
2020/12/23 12:39:17;;;;;;;;;;;;;;;23.82;33.91;99834.88;4997754;28;19930;-64